createdAt,value
2018-11-03T00:01:52.795Z,18.30
2018-11-03T00:04:20.875Z,18.30
2018-11-03T00:06:49.560Z,18.30
2018-11-03T00:09:17.812Z,18.30
2018-11-03T00:11:46.000Z,18.30
2018-11-03T00:14:14.209Z,18.30
2018-11-03T00:16:43.728Z,18.30
2018-11-03T00:19:11.572Z,18.30
2018-11-03T00:21:41.367Z,18.30
2018-11-03T00:24:11.065Z,18.30
2018-11-03T00:26:40.755Z,18.30
2018-11-03T00:29:08.822Z,18.30
2018-11-03T00:31:38.537Z,18.30
2018-11-03T00:34:06.560Z,18.30
2018-11-03T00:36:34.430Z,18.30
2018-11-03T00:39:08.333Z,18.30
2018-11-03T00:41:37.180Z,18.30
2018-11-03T00:44:06.091Z,18.30
2018-11-03T00:46:35.775Z,18.30
2018-11-03T00:49:05.193Z,18.20
2018-11-03T00:51:34.305Z,18.30
2018-11-03T00:54:03.109Z,18.30
2018-11-03T00:56:32.695Z,18.30
2018-11-03T00:59:00.930Z,18.30
2018-11-03T01:01:30.903Z,18.30
2018-11-03T01:03:59.651Z,18.20
2018-11-03T01:06:28.910Z,18.30
2018-11-03T01:08:58.843Z,18.30
2018-11-03T01:11:32.994Z,18.20
2018-11-03T01:14:02.492Z,18.30
2018-11-03T01:16:30.726Z,18.30
2018-11-03T01:18:59.106Z,18.20
2018-11-03T01:21:33.974Z,18.20
2018-11-03T01:24:05.736Z,18.30
2018-11-03T01:26:37.991Z,18.30
2018-11-03T01:29:12.664Z,18.20
2018-11-03T01:32:07.988Z,18.20
2018-11-03T01:34:42.210Z,18.30
2018-11-03T01:37:13.022Z,18.20
2018-11-03T01:39:44.075Z,18.20
2018-11-03T01:42:45.210Z,18.20
2018-11-03T01:48:31.463Z,18.20
2018-11-03T01:51:06.362Z,18.20
2018-11-03T01:53:34.672Z,18.20
2018-11-03T01:56:13.833Z,18.20
2018-11-03T01:58:43.802Z,18.20
2018-11-03T02:01:19.015Z,18.20
2018-11-03T02:03:50.752Z,18.20
2018-11-03T02:06:21.286Z,18.20
2018-11-03T02:08:59.432Z,18.20
2018-11-03T02:11:33.847Z,18.20
2018-11-03T02:14:09.997Z,18.20
2018-11-03T02:19:56.656Z,18.20
2018-11-03T02:25:24.209Z,18.20
2018-11-03T02:31:09.157Z,18.20
2018-11-03T02:34:30.392Z,18.20
2018-11-03T02:37:06.034Z,18.20
2018-11-03T02:39:43.239Z,18.20
2018-11-03T02:42:17.995Z,18.20
2018-11-03T02:44:47.682Z,18.20
2018-11-03T02:47:24.242Z,18.20
2018-11-03T02:52:48.237Z,18.20
2018-11-03T02:55:27.349Z,18.20
2018-11-03T02:58:11.185Z,18.20
2018-11-03T03:00:50.904Z,18.20
2018-11-03T03:03:23.629Z,18.20
2018-11-03T03:09:59.885Z,18.20
2018-11-03T03:12:37.317Z,18.20
2018-11-03T03:15:11.087Z,18.10
2018-11-03T03:17:49.286Z,18.20
2018-11-03T03:20:28.389Z,18.20
2018-11-03T03:23:03.654Z,18.20
2018-11-03T03:28:26.511Z,18.20
2018-11-03T03:31:11.573Z,18.20
2018-11-03T03:36:49.871Z,18.20
2018-11-03T03:42:40.073Z,18.20
2018-11-03T03:45:14.476Z,18.20
2018-11-03T03:48:31.436Z,18.20
2018-11-03T03:51:08.569Z,18.10
2018-11-03T03:53:51.799Z,18.20
2018-11-03T03:56:27.944Z,18.20
2018-11-03T03:59:07.336Z,18.20
2018-11-03T04:01:51.159Z,18.20
2018-11-03T04:04:26.917Z,18.20
2018-11-03T04:06:56.058Z,18.20
2018-11-03T04:09:30.135Z,18.20
2018-11-03T04:12:08.085Z,18.20
2018-11-03T04:15:13.584Z,18.20
2018-11-03T04:17:46.420Z,18.20
2018-11-03T04:20:28.497Z,18.20
2018-11-03T04:29:06.856Z,18.20
2018-11-03T04:31:43.967Z,18.20
2018-11-03T04:34:22.772Z,18.20
2018-11-03T04:36:55.528Z,18.20
2018-11-03T04:39:30.842Z,18.20
2018-11-03T04:42:02.740Z,18.20
2018-11-03T04:50:20.607Z,18.20
2018-11-03T04:52:54.245Z,18.10
2018-11-03T05:01:35.659Z,18.10
2018-11-03T05:06:47.644Z,18.20
2018-11-03T05:12:16.298Z,18.20
2018-11-03T05:14:52.750Z,18.20
2018-11-03T05:17:30.768Z,18.20
2018-11-03T05:20:23.252Z,18.20
2018-11-03T05:22:59.600Z,18.20
2018-11-03T05:25:42.481Z,18.20
2018-11-03T05:28:22.508Z,18.20
2018-11-03T05:30:57.020Z,18.10
2018-11-03T05:35:59.412Z,18.20
2018-11-03T05:38:28.957Z,18.10
2018-11-03T05:41:02.546Z,18.20
2018-11-03T05:43:34.444Z,18.20
2018-11-03T05:46:05.306Z,18.20
2018-11-03T05:51:23.536Z,18.20
2018-11-03T05:54:04.800Z,18.20
2018-11-03T05:56:44.172Z,18.20
2018-11-03T05:59:19.613Z,18.20
2018-11-03T06:01:58.880Z,18.20
2018-11-03T06:04:41.275Z,18.20
2018-11-03T06:10:12.707Z,18.20
2018-11-03T06:12:46.826Z,18.20
2018-11-03T06:15:18.805Z,18.20
2018-11-03T06:17:46.817Z,18.20
2018-11-03T06:20:18.348Z,18.20
2018-11-03T06:22:58.045Z,18.20
2018-11-03T06:25:30.761Z,18.20
2018-11-03T06:28:11.586Z,18.20
2018-11-03T06:30:42.954Z,18.20
2018-11-03T06:33:15.156Z,18.20
2018-11-03T06:35:49.260Z,18.20
2018-11-03T06:38:16.809Z,18.20
2018-11-03T06:40:45.288Z,18.20
2018-11-03T06:43:18.330Z,18.20
2018-11-03T06:45:54.075Z,18.20
2018-11-03T06:51:12.839Z,18.20
2018-11-03T06:53:48.000Z,18.20
2018-11-03T06:56:17.672Z,18.20
2018-11-03T06:58:48.054Z,18.20
2018-11-03T07:01:18.932Z,18.20
2018-11-03T07:03:48.405Z,18.20
2018-11-03T07:06:22.444Z,18.20
2018-11-03T07:08:53.664Z,18.20
2018-11-03T07:11:31.966Z,18.30
2018-11-03T07:14:02.682Z,18.30
2018-11-03T07:22:07.372Z,18.30
2018-11-03T07:24:34.875Z,18.30
2018-11-03T07:27:08.333Z,18.30
2018-11-03T07:29:35.917Z,18.30
2018-11-03T07:32:03.466Z,18.30
2018-11-03T07:34:31.031Z,18.30
2018-11-03T07:36:59.979Z,18.30
2018-11-03T07:39:28.055Z,18.30
2018-11-03T07:41:55.637Z,18.40
2018-11-03T07:44:23.299Z,18.40
2018-11-03T07:46:59.544Z,18.40
2018-11-03T07:49:31.416Z,18.40
2018-11-03T07:52:01.855Z,18.40
2018-11-03T07:54:33.875Z,18.40
2018-11-03T07:57:01.402Z,18.40
2018-11-03T07:59:29.342Z,18.40
2018-11-03T08:01:59.563Z,18.40
2018-11-03T08:04:27.152Z,18.40
2018-11-03T08:06:55.471Z,18.40
2018-11-03T08:09:23.005Z,18.50
2018-11-03T08:11:53.472Z,18.50
2018-11-03T08:14:23.284Z,18.50
2018-11-03T08:16:50.868Z,18.50
2018-11-03T08:19:18.992Z,18.50
2018-11-03T08:21:48.587Z,18.50
2018-11-03T08:24:16.721Z,18.50
2018-11-03T08:26:47.619Z,18.50
2018-11-03T08:29:16.488Z,18.50
2018-11-03T08:31:51.488Z,18.50
2018-11-03T08:34:21.864Z,18.60
2018-11-03T08:36:50.466Z,18.50
2018-11-03T08:39:29.830Z,18.60
2018-11-03T08:42:02.221Z,18.50
2018-11-03T08:44:31.100Z,18.60
2018-11-03T08:47:01.039Z,18.60
2018-11-03T08:49:32.495Z,18.60
2018-11-03T08:52:07.479Z,18.60
2018-11-03T08:54:42.911Z,18.60
2018-11-03T08:57:12.180Z,18.60
2018-11-03T08:59:42.460Z,18.60
2018-11-03T09:02:21.532Z,18.60
2018-11-03T09:07:28.839Z,18.60
2018-11-03T09:10:02.369Z,18.60
2018-11-03T09:12:34.328Z,18.60
2018-11-03T09:15:09.054Z,18.60
2018-11-03T09:17:45.154Z,18.60
2018-11-03T09:20:17.386Z,18.60
2018-11-03T09:22:46.288Z,18.60
2018-11-03T09:25:15.476Z,18.60
2018-11-03T09:27:46.925Z,18.60
2018-11-03T09:37:23.141Z,18.60
2018-11-03T09:39:57.096Z,18.50
2018-11-03T09:42:34.998Z,18.50
2018-11-03T09:45:08.888Z,18.50
2018-11-03T09:47:48.665Z,18.60
2018-11-03T09:50:24.378Z,18.60
2018-11-03T09:52:56.302Z,18.60
2018-11-03T09:55:26.257Z,18.60
2018-11-03T09:58:08.336Z,18.70
2018-11-03T10:03:20.905Z,18.60
2018-11-03T10:05:55.139Z,18.70
2018-11-03T10:08:30.069Z,18.70
2018-11-03T10:11:24.382Z,18.70
2018-11-03T10:14:01.712Z,18.70
2018-11-03T10:16:36.965Z,18.70
2018-11-03T10:19:16.281Z,18.70
2018-11-03T10:21:52.298Z,18.70
2018-11-03T10:24:25.788Z,18.70
2018-11-03T10:27:03.773Z,18.70
2018-11-03T10:29:36.421Z,18.70
2018-11-03T10:34:59.176Z,18.70
2018-11-03T10:37:35.557Z,18.70
2018-11-03T10:40:11.664Z,18.70
2018-11-03T10:42:42.480Z,18.70
2018-11-03T10:45:17.094Z,18.70
2018-11-03T10:47:50.394Z,18.70
2018-11-03T10:50:20.444Z,18.70
2018-11-03T10:52:52.103Z,18.70
2018-11-03T10:55:23.448Z,18.70
2018-11-03T10:57:52.780Z,18.70
2018-11-03T11:01:26.881Z,18.70
2018-11-03T11:04:02.686Z,18.70
2018-11-03T11:06:36.002Z,18.70
2018-11-03T11:09:12.411Z,18.60
2018-11-03T11:11:46.868Z,18.70
2018-11-03T11:14:19.745Z,18.70
2018-11-03T11:16:48.853Z,18.70
2018-11-03T11:19:18.911Z,18.70
2018-11-03T11:21:46.545Z,18.80
2018-11-03T11:24:14.418Z,18.80
2018-11-03T11:26:43.208Z,18.70
2018-11-03T11:29:11.761Z,18.70
2018-11-03T11:31:41.748Z,18.70
2018-11-03T11:34:13.539Z,18.70
2018-11-03T11:36:43.929Z,18.70
2018-11-03T11:39:14.106Z,18.70
2018-11-03T11:41:43.483Z,18.70
2018-11-03T11:44:12.271Z,18.70
2018-11-03T11:46:41.792Z,18.70
2018-11-03T11:49:11.232Z,18.70
2018-11-03T11:51:39.803Z,18.70
2018-11-03T11:54:13.093Z,18.70
2018-11-03T11:56:42.556Z,18.70
2018-11-03T11:59:11.953Z,18.70
2018-11-03T12:01:46.752Z,18.70
2018-11-03T12:04:14.752Z,18.70
2018-11-03T12:06:47.089Z,18.70
2018-11-03T12:09:17.535Z,18.70
2018-11-03T12:11:48.329Z,18.70
2018-11-03T12:14:16.433Z,18.70
2018-11-03T12:16:44.563Z,18.70
2018-11-03T12:19:15.105Z,18.70
2018-11-03T12:21:44.898Z,18.70
2018-11-03T12:24:15.796Z,18.60
2018-11-03T12:26:44.144Z,18.70
2018-11-03T12:29:12.136Z,18.70
2018-11-03T12:31:41.380Z,18.70
2018-11-03T12:34:10.095Z,18.70
2018-11-03T12:36:38.441Z,18.70
2018-11-03T12:39:07.014Z,18.70
2018-11-03T12:41:36.284Z,18.70
2018-11-03T12:44:04.520Z,18.70
2018-11-03T12:46:38.555Z,18.70
2018-11-03T12:49:09.552Z,18.70
2018-11-03T12:51:37.799Z,18.70
2018-11-03T12:54:06.126Z,18.70
2018-11-03T12:56:36.275Z,18.70
2018-11-03T12:59:05.036Z,18.70
2018-11-03T13:01:33.480Z,18.70
2018-11-03T13:04:02.642Z,18.70
2018-11-03T13:06:31.940Z,18.70
2018-11-03T13:09:02.372Z,18.70
2018-11-03T13:11:31.308Z,18.60
2018-11-03T13:13:59.509Z,18.60
2018-11-03T13:16:31.800Z,18.60
2018-11-03T13:19:04.505Z,18.60
2018-11-03T13:21:33.402Z,18.60
2018-11-03T13:24:04.250Z,18.60
2018-11-03T13:26:32.900Z,18.60
2018-11-03T13:29:00.726Z,18.60
2018-11-03T13:31:29.390Z,18.50
2018-11-03T13:33:58.000Z,18.50
2018-11-03T13:36:27.800Z,18.60
2018-11-03T13:38:55.691Z,18.50
2018-11-03T13:41:23.852Z,18.60
2018-11-03T13:43:52.167Z,18.60
2018-11-03T13:46:22.649Z,18.60
2018-11-03T13:48:51.585Z,18.60
2018-11-03T13:51:22.064Z,18.50
2018-11-03T13:59:18.614Z,18.60
2018-11-03T14:01:51.648Z,18.60
2018-11-03T14:04:20.289Z,18.60
2018-11-03T14:06:58.772Z,18.60
2018-11-03T14:09:29.043Z,18.60
2018-11-03T14:12:09.370Z,18.60
2018-11-03T14:14:40.445Z,18.50
2018-11-03T14:17:14.029Z,18.50
2018-11-03T14:19:42.569Z,18.60
2018-11-03T14:22:10.593Z,18.50
2018-11-03T14:24:38.466Z,18.50
2018-11-03T14:27:07.923Z,18.60
2018-11-03T14:29:39.600Z,18.60
2018-11-03T14:32:07.995Z,18.50
2018-11-03T14:34:38.060Z,18.50
2018-11-03T14:37:08.495Z,18.50
2018-11-03T14:39:43.779Z,18.50
2018-11-03T14:42:13.495Z,18.50
2018-11-03T14:44:42.525Z,18.50
2018-11-03T14:47:11.790Z,18.50
2018-11-03T14:49:46.820Z,18.50
2018-11-03T14:52:18.835Z,18.50
2018-11-03T14:54:52.504Z,18.50
2018-11-03T14:57:24.973Z,18.50
2018-11-03T14:59:55.760Z,18.50
2018-11-03T15:02:27.668Z,18.50
2018-11-03T15:05:08.377Z,18.50
2018-11-03T15:07:42.775Z,18.50
2018-11-03T15:10:13.605Z,18.50
2018-11-03T15:12:42.949Z,18.50
2018-11-03T15:15:13.503Z,18.50
2018-11-03T15:17:42.575Z,18.50
2018-11-03T15:20:13.487Z,18.50
2018-11-03T15:22:43.040Z,18.50
2018-11-03T15:25:11.115Z,18.50
2018-11-03T15:27:42.424Z,18.40
2018-11-03T15:30:17.025Z,18.50
2018-11-03T15:32:51.438Z,18.50
2018-11-03T15:35:23.588Z,18.50
2018-11-03T15:38:01.108Z,18.40
2018-11-03T15:40:29.301Z,18.50
2018-11-03T15:43:07.931Z,18.50
2018-11-03T15:45:37.320Z,18.40
2018-11-03T15:51:08.064Z,18.40
2018-11-03T15:53:41.237Z,18.40
2018-11-03T16:01:40.401Z,18.40
2018-11-03T16:04:13.335Z,18.40
2018-11-03T16:06:43.935Z,18.40
2018-11-03T16:09:17.555Z,18.40
2018-11-03T16:11:51.102Z,18.40
2018-11-03T16:14:19.239Z,18.50
2018-11-03T16:23:21.507Z,18.50
2018-11-03T16:25:57.048Z,18.50
2018-11-03T16:28:24.725Z,18.50
2018-11-03T16:30:55.279Z,18.50
2018-11-03T16:33:23.205Z,18.50
2018-11-03T16:36:06.279Z,18.50
2018-11-03T16:38:35.897Z,18.60
2018-11-03T16:41:03.674Z,18.60
2018-11-03T16:43:32.538Z,18.60
2018-11-03T16:46:00.453Z,18.60
2018-11-03T16:48:28.322Z,18.60
2018-11-03T16:50:57.548Z,18.60
2018-11-03T16:53:29.755Z,18.60
2018-11-03T16:56:04.608Z,18.60
2018-11-03T16:58:35.304Z,18.60
2018-11-03T17:03:46.755Z,18.60
2018-11-03T17:06:20.727Z,18.60
2018-11-03T17:08:52.880Z,18.60
2018-11-03T17:11:22.580Z,18.60
2018-11-03T17:13:54.632Z,18.60
2018-11-03T17:16:28.772Z,18.60
2018-11-03T17:19:12.606Z,18.70
2018-11-03T17:21:51.716Z,18.70
2018-11-03T17:24:24.237Z,18.70
2018-11-03T17:26:57.630Z,18.70
2018-11-03T17:38:46.288Z,18.60
2018-11-03T17:47:41.794Z,18.70
2018-11-03T17:53:03.927Z,18.60
2018-11-03T17:58:32.859Z,18.60
2018-11-03T18:01:13.927Z,18.70
2018-11-03T18:03:48.747Z,18.70
2018-11-03T18:06:23.586Z,18.70
2018-11-03T18:16:29.299Z,18.70
2018-11-03T18:19:03.529Z,18.70
2018-11-03T18:24:33.455Z,18.70
2018-11-03T18:51:36.729Z,18.70
2018-11-03T18:54:11.515Z,18.80
2018-11-03T18:56:40.235Z,18.70
2018-11-03T18:59:08.919Z,18.80
2018-11-03T19:05:18.055Z,18.80
2018-11-03T19:07:57.816Z,18.80
2018-11-03T19:10:28.860Z,18.80
2018-11-03T19:13:09.455Z,18.80
